LPAZ/SMA METAR and TAF weather

Enter ICAO airport designator
Station Type Date Time Source
LPAZ METAR 2019/06/17 14:30 UTC NOAA

LPAZ 171430Z 29021KT 9999 BKN010 22/18 Q1009


Station Type Date Time Source
LPAZ Decoded METAR 2019/06/17 14:30 UTC NOAA

Santa Maria Acores , Portugal (LPAZ) 36-58N 025-10W 100M
Jun 17, 2019 - 10:30 AM EDT / 2019.06.17 1430 UTC
Wind: from the WNW (290 degrees) at 24 MPH (21 KT):0
Visibility: greater than 7 mile(s):0
Sky conditions: mostly cloudy
Temperature: 71 F (22 C)
Dew Point: 64 F (18 C)
Relative Humidity: 78%
Pressure (altimeter): 29.80 in. Hg (1009 hPa)
ob: LPAZ 171430Z 29021KT 9999 BKN010 22/18 Q1009
cycle: 14

Station Type Date Time Source
LPAZ TAF 2019/06/17 12:18 UTC NOAA

TAF TAF LPAZ 171100Z 1712/1818 28023KT 9999 SCT018 PROB40
TEMPO 1712/1718 8000 SHRA BKN015 FEW025TCU
BECMG 1715/1717 32015KT
BECMG 1801/1803 32008KT
BECMG 1812/1814 06008KT

Example: see airport list